sensor_id;sensor_type;location;lat;lon;timestamp;temperature;humidity
18906;DHT22;9585;51.018;4.282;2023-07-13T00:02:08;14.90;99.90
18906;DHT22;9585;51.018;4.282;2023-07-13T00:04:36;14.90;99.90
18906;DHT22;9585;51.018;4.282;2023-07-13T00:07:04;14.90;99.90
18906;DHT22;9585;51.018;4.282;2023-07-13T00:09:31;14.80;99.90
18906;DHT22;9585;51.018;4.282;2023-07-13T00:11:59;14.80;99.90
18906;DHT22;9585;51.018;4.282;2023-07-13T00:14:29;14.80;99.90
18906;DHT22;9585;51.018;4.282;2023-07-13T00:16:56;14.80;99.90
18906;DHT22;9585;51.018;4.282;2023-07-13T00:19:26;14.70;99.90
18906;DHT22;9585;51.018;4.282;2023-07-13T00:21:53;14.70;99.90
18906;DHT22;9585;51.018;4.282;2023-07-13T00:24:21;14.70;99.90
18906;DHT22;9585;51.018;4.282;2023-07-13T00:26:49;14.60;99.90
18906;DHT22;9585;51.018;4.282;2023-07-13T00:29:17;14.50;99.90
18906;DHT22;9585;51.018;4.282;2023-07-13T00:31:46;14.50;99.90
18906;DHT22;9585;51.018;4.282;2023-07-13T00:34:13;14.50;99.90
18906;DHT22;9585;51.018;4.282;2023-07-13T00:36:41;14.60;99.90
18906;DHT22;9585;51.018;4.282;2023-07-13T00:39:08;14.50;99.90
18906;DHT22;9585;51.018;4.282;2023-07-13T00:41:36;14.50;99.90
18906;DHT22;9585;51.018;4.282;2023-07-13T00:44:04;14.50;99.90
18906;DHT22;9585;51.018;4.282;2023-07-13T00:46:33;14.50;99.90
18906;DHT22;9585;51.018;4.282;2023-07-13T00:49:06;14.40;99.90
18906;DHT22;9585;51.018;4.282;2023-07-13T00:51:39;14.40;99.90
18906;DHT22;9585;51.018;4.282;2023-07-13T00:54:14;14.40;99.90
18906;DHT22;9585;51.018;4.282;2023-07-13T00:56:44;14.40;99.90
18906;DHT22;9585;51.018;4.282;2023-07-13T00:59:13;14.30;99.90
18906;DHT22;9585;51.018;4.282;2023-07-13T01:01:42;14.30;99.90
18906;DHT22;9585;51.018;4.282;2023-07-13T01:04:11;14.30;99.90
18906;DHT22;9585;51.018;4.282;2023-07-13T01:06:40;14.30;99.90
18906;DHT22;9585;51.018;4.282;2023-07-13T01:09:10;14.30;99.90
18906;DHT22;9585;51.018;4.282;2023-07-13T01:11:38;14.30;99.90
18906;DHT22;9585;51.018;4.282;2023-07-13T01:14:07;14.30;99.90
18906;DHT22;9585;51.018;4.282;2023-07-13T01:16:36;14.20;99.90
18906;DHT22;9585;51.018;4.282;2023-07-13T01:19:12;14.20;99.90
18906;DHT22;9585;51.018;4.282;2023-07-13T01:21:44;14.20;99.90
18906;DHT22;9585;51.018;4.282;2023-07-13T01:24:16;14.20;99.90
18906;DHT22;9585;51.018;4.282;2023-07-13T01:26:44;14.10;99.90
18906;DHT22;9585;51.018;4.282;2023-07-13T01:29:11;14.10;99.90
18906;DHT22;9585;51.018;4.282;2023-07-13T01:31:39;14.10;99.90
18906;DHT22;9585;51.018;4.282;2023-07-13T01:34:06;14.10;99.90
18906;DHT22;9585;51.018;4.282;2023-07-13T01:36:34;14.00;99.90
18906;DHT22;9585;51.018;4.282;2023-07-13T01:39:03;14.00;99.90
18906;DHT22;9585;51.018;4.282;2023-07-13T01:41:31;14.00;99.90
18906;DHT22;9585;51.018;4.282;2023-07-13T01:43:58;14.00;99.90
18906;DHT22;9585;51.018;4.282;2023-07-13T01:46:26;14.00;99.90
18906;DHT22;9585;51.018;4.282;2023-07-13T01:48:54;13.90;99.90
18906;DHT22;9585;51.018;4.282;2023-07-13T01:51:21;13.90;99.90
18906;DHT22;9585;51.018;4.282;2023-07-13T01:53:48;13.80;99.90
18906;DHT22;9585;51.018;4.282;2023-07-13T01:56:18;13.80;99.90
18906;DHT22;9585;51.018;4.282;2023-07-13T01:58:46;13.80;99.90
18906;DHT22;9585;51.018;4.282;2023-07-13T02:01:14;13.80;99.90
18906;DHT22;9585;51.018;4.282;2023-07-13T02:03:41;13.70;99.90
18906;DHT22;9585;51.018;4.282;2023-07-13T02:06:08;13.70;99.90
18906;DHT22;9585;51.018;4.282;2023-07-13T02:08:37;13.70;99.90
18906;DHT22;9585;51.018;4.282;2023-07-13T02:11:04;13.70;99.90
18906;DHT22;9585;51.018;4.282;2023-07-13T02:13:33;13.70;99.90
18906;DHT22;9585;51.018;4.282;2023-07-13T02:16:00;13.70;99.90
18906;DHT22;9585;51.018;4.282;2023-07-13T02:18:28;13.70;99.90
18906;DHT22;9585;51.018;4.282;2023-07-13T02:20:55;13.60;99.90
18906;DHT22;9585;51.018;4.282;2023-07-13T02:23:23;13.60;99.90
18906;DHT22;9585;51.018;4.282;2023-07-13T02:25:54;13.60;99.90
18906;DHT22;9585;51.018;4.282;2023-07-13T02:28:22;13.60;99.90
18906;DHT22;9585;51.018;4.282;2023-07-13T02:30:51;13.60;99.90
18906;DHT22;9585;51.018;4.282;2023-07-13T02:33:18;13.60;99.90
18906;DHT22;9585;51.018;4.282;2023-07-13T02:35:46;13.60;99.90
18906;DHT22;9585;51.018;4.282;2023-07-13T02:38:14;13.60;99.90
18906;DHT22;9585;51.018;4.282;2023-07-13T02:40:41;13.60;99.90
18906;DHT22;9585;51.018;4.282;2023-07-13T02:43:08;13.60;99.90
18906;DHT22;9585;51.018;4.282;2023-07-13T02:45:36;13.60;99.90
18906;DHT22;9585;51.018;4.282;2023-07-13T02:48:05;13.70;99.90
18906;DHT22;9585;51.018;4.282;2023-07-13T02:50:32;13.70;99.90
18906;DHT22;9585;51.018;4.282;2023-07-13T02:53:00;13.70;99.90
18906;DHT22;9585;51.018;4.282;2023-07-13T02:55:27;13.80;99.90
18906;DHT22;9585;51.018;4.282;2023-07-13T02:57:55;13.80;99.90
18906;DHT22;9585;51.018;4.282;2023-07-13T03:00:22;13.80;99.90
18906;DHT22;9585;51.018;4.282;2023-07-13T03:02:50;13.80;99.90
18906;DHT22;9585;51.018;4.282;2023-07-13T03:05:20;13.80;99.90
18906;DHT22;9585;51.018;4.282;2023-07-13T03:07:47;13.80;99.90
18906;DHT22;9585;51.018;4.282;2023-07-13T03:10:15;13.80;99.90
18906;DHT22;9585;51.018;4.282;2023-07-13T03:12:43;13.80;99.90
18906;DHT22;9585;51.018;4.282;2023-07-13T03:15:10;13.80;99.90
18906;DHT22;9585;51.018;4.282;2023-07-13T03:17:38;13.80;99.90
18906;DHT22;9585;51.018;4.282;2023-07-13T03:20:07;13.80;99.90
18906;DHT22;9585;51.018;4.282;2023-07-13T03:22:36;13.80;99.90
18906;DHT22;9585;51.018;4.282;2023-07-13T03:25:04;13.80;99.90
18906;DHT22;9585;51.018;4.282;2023-07-13T03:27:32;13.90;99.90
18906;DHT22;9585;51.018;4.282;2023-07-13T03:30:00;13.90;99.90
18906;DHT22;9585;51.018;4.282;2023-07-13T03:32:27;13.90;99.90
18906;DHT22;9585;51.018;4.282;2023-07-13T03:34:54;13.90;99.90
18906;DHT22;9585;51.018;4.282;2023-07-13T03:37:22;13.90;99.90
18906;DHT22;9585;51.018;4.282;2023-07-13T03:39:51;14.00;99.90
18906;DHT22;9585;51.018;4.282;2023-07-13T03:42:19;14.00;99.90
18906;DHT22;9585;51.018;4.282;2023-07-13T03:44:46;14.00;99.90
18906;DHT22;9585;51.018;4.282;2023-07-13T03:47:18;14.00;99.90
18906;DHT22;9585;51.018;4.282;2023-07-13T03:49:45;14.10;99.90
18906;DHT22;9585;51.018;4.282;2023-07-13T03:52:13;14.00;99.90
18906;DHT22;9585;51.018;4.282;2023-07-13T03:54:41;14.00;99.90
18906;DHT22;9585;51.018;4.282;2023-07-13T03:57:10;14.10;99.90
18906;DHT22;9585;51.018;4.282;2023-07-13T03:59:37;14.10;99.90
18906;DHT22;9585;51.018;4.282;2023-07-13T04:02:05;14.10;99.90
18906;DHT22;9585;51.018;4.282;2023-07-13T04:04:32;14.10;99.90
18906;DHT22;9585;51.018;4.282;2023-07-13T04:07:00;14.10;99.90
18906;DHT22;9585;51.018;4.282;2023-07-13T04:09:28;14.10;99.90
18906;DHT22;9585;51.018;4.282;2023-07-13T04:11:55;14.00;99.90
18906;DHT22;9585;51.018;4.282;2023-07-13T04:14:25;14.00;99.90
18906;DHT22;9585;51.018;4.282;2023-07-13T04:16:53;14.00;99.90
18906;DHT22;9585;51.018;4.282;2023-07-13T04:19:21;14.10;99.90
18906;DHT22;9585;51.018;4.282;2023-07-13T04:21:49;14.10;99.90
18906;DHT22;9585;51.018;4.282;2023-07-13T04:24:17;14.20;99.90
18906;DHT22;9585;51.018;4.282;2023-07-13T04:26:45;14.30;99.90
18906;DHT22;9585;51.018;4.282;2023-07-13T04:29:12;14.30;99.90
18906;DHT22;9585;51.018;4.282;2023-07-13T04:31:42;14.30;99.90
18906;DHT22;9585;51.018;4.282;2023-07-13T04:34:10;14.30;99.90
18906;DHT22;9585;51.018;4.282;2023-07-13T04:36:38;14.20;99.90
18906;DHT22;9585;51.018;4.282;2023-07-13T04:39:05;14.30;99.90
18906;DHT22;9585;51.018;4.282;2023-07-13T04:41:34;14.30;99.90
18906;DHT22;9585;51.018;4.282;2023-07-13T04:44:02;14.40;99.90
18906;DHT22;9585;51.018;4.282;2023-07-13T04:46:30;14.40;99.90
18906;DHT22;9585;51.018;4.282;2023-07-13T04:48:59;14.40;99.90
18906;DHT22;9585;51.018;4.282;2023-07-13T04:51:27;14.50;99.90
18906;DHT22;9585;51.018;4.282;2023-07-13T04:53:54;14.40;99.90
18906;DHT22;9585;51.018;4.282;2023-07-13T04:56:22;14.40;99.90
18906;DHT22;9585;51.018;4.282;2023-07-13T04:58:50;14.50;99.90
18906;DHT22;9585;51.018;4.282;2023-07-13T05:01:17;14.50;99.90
18906;DHT22;9585;51.018;4.282;2023-07-13T05:03:46;14.60;99.90
18906;DHT22;9585;51.018;4.282;2023-07-13T05:06:15;14.70;99.90
18906;DHT22;9585;51.018;4.282;2023-07-13T05:08:42;14.70;99.90
18906;DHT22;9585;51.018;4.282;2023-07-13T05:11:10;14.80;99.90
18906;DHT22;9585;51.018;4.282;2023-07-13T05:13:38;14.90;99.90
18906;DHT22;9585;51.018;4.282;2023-07-13T05:16:06;14.80;99.90
18906;DHT22;9585;51.018;4.282;2023-07-13T05:18:34;14.70;99.90
18906;DHT22;9585;51.018;4.282;2023-07-13T05:21:03;14.80;99.90
18906;DHT22;9585;51.018;4.282;2023-07-13T05:23:34;14.80;99.90
18906;DHT22;9585;51.018;4.282;2023-07-13T05:26:03;14.90;99.90
18906;DHT22;9585;51.018;4.282;2023-07-13T05:28:31;14.90;99.90
18906;DHT22;9585;51.018;4.282;2023-07-13T05:30:59;15.00;99.90
18906;DHT22;9585;51.018;4.282;2023-07-13T05:33:27;15.00;99.90
18906;DHT22;9585;51.018;4.282;2023-07-13T05:35:55;15.10;99.90
18906;DHT22;9585;51.018;4.282;2023-07-13T05:38:23;15.10;99.90
18906;DHT22;9585;51.018;4.282;2023-07-13T05:40:54;15.30;99.90
18906;DHT22;9585;51.018;4.282;2023-07-13T05:43:22;15.30;99.90
18906;DHT22;9585;51.018;4.282;2023-07-13T05:45:54;15.20;99.90
18906;DHT22;9585;51.018;4.282;2023-07-13T05:48:22;15.20;99.90
18906;DHT22;9585;51.018;4.282;2023-07-13T05:50:49;15.20;99.90
18906;DHT22;9585;51.018;4.282;2023-07-13T05:53:17;15.20;99.90
18906;DHT22;9585;51.018;4.282;2023-07-13T05:55:46;15.20;99.90
18906;DHT22;9585;51.018;4.282;2023-07-13T05:58:17;15.20;99.90
18906;DHT22;9585;51.018;4.282;2023-07-13T06:00:45;15.20;99.90
18906;DHT22;9585;51.018;4.282;2023-07-13T06:03:13;15.30;99.90
18906;DHT22;9585;51.018;4.282;2023-07-13T06:05:41;15.50;99.90
18906;DHT22;9585;51.018;4.282;2023-07-13T06:08:08;15.60;99.90
18906;DHT22;9585;51.018;4.282;2023-07-13T06:10:36;15.70;99.90
18906;DHT22;9585;51.018;4.282;2023-07-13T06:13:04;15.80;99.90
18906;DHT22;9585;51.018;4.282;2023-07-13T06:15:33;15.90;99.90
18906;DHT22;9585;51.018;4.282;2023-07-13T06:18:01;16.00;99.90
18906;DHT22;9585;51.018;4.282;2023-07-13T06:20:29;15.90;99.90
18906;DHT22;9585;51.018;4.282;2023-07-13T06:22:57;16.20;99.90
18906;DHT22;9585;51.018;4.282;2023-07-13T06:25:26;16.30;99.90
18906;DHT22;9585;51.018;4.282;2023-07-13T06:27:54;16.40;99.90
18906;DHT22;9585;51.018;4.282;2023-07-13T06:30:21;16.60;99.90
18906;DHT22;9585;51.018;4.282;2023-07-13T06:32:50;16.80;99.90
18906;DHT22;9585;51.018;4.282;2023-07-13T06:35:18;17.00;99.90
18906;DHT22;9585;51.018;4.282;2023-07-13T06:37:46;17.50;99.90
18906;DHT22;9585;51.018;4.282;2023-07-13T06:40:14;17.80;99.90
18906;DHT22;9585;51.018;4.282;2023-07-13T06:42:41;18.00;99.90
18906;DHT22;9585;51.018;4.282;2023-07-13T06:45:09;18.10;99.90
18906;DHT22;9585;51.018;4.282;2023-07-13T06:47:37;18.20;99.90
18906;DHT22;9585;51.018;4.282;2023-07-13T06:50:07;18.30;99.90
18906;DHT22;9585;51.018;4.282;2023-07-13T06:52:34;18.20;99.90
18906;DHT22;9585;51.018;4.282;2023-07-13T06:55:02;18.20;99.90
18906;DHT22;9585;51.018;4.282;2023-07-13T06:57:30;18.00;99.90
18906;DHT22;9585;51.018;4.282;2023-07-13T06:59:57;18.00;99.90
18906;DHT22;9585;51.018;4.282;2023-07-13T07:02:25;18.20;99.90
18906;DHT22;9585;51.018;4.282;2023-07-13T07:04:53;18.40;99.90
18906;DHT22;9585;51.018;4.282;2023-07-13T07:07:23;18.20;99.90
18906;DHT22;9585;51.018;4.282;2023-07-13T07:09:51;18.40;99.90
18906;DHT22;9585;51.018;4.282;2023-07-13T07:12:18;18.90;99.90
18906;DHT22;9585;51.018;4.282;2023-07-13T07:14:47;19.30;99.90
18906;DHT22;9585;51.018;4.282;2023-07-13T07:17:14;19.80;99.90
18906;DHT22;9585;51.018;4.282;2023-07-13T07:19:42;20.50;99.90
18906;DHT22;9585;51.018;4.282;2023-07-13T07:22:10;20.50;99.90
18906;DHT22;9585;51.018;4.282;2023-07-13T07:24:39;20.90;99.90
18906;DHT22;9585;51.018;4.282;2023-07-13T07:27:06;21.70;99.90
18906;DHT22;9585;51.018;4.282;2023-07-13T07:29:34;22.10;99.90
18906;DHT22;9585;51.018;4.282;2023-07-13T07:32:02;22.80;99.90
18906;DHT22;9585;51.018;4.282;2023-07-13T07:34:30;22.80;99.90
18906;DHT22;9585;51.018;4.282;2023-07-13T07:37:01;23.50;99.90
18906;DHT22;9585;51.018;4.282;2023-07-13T07:39:32;24.00;99.90
18906;DHT22;9585;51.018;4.282;2023-07-13T07:42:01;24.60;99.90
18906;DHT22;9585;51.018;4.282;2023-07-13T07:44:30;24.80;99.90
18906;DHT22;9585;51.018;4.282;2023-07-13T07:46:58;24.60;99.90
18906;DHT22;9585;51.018;4.282;2023-07-13T07:49:27;24.00;99.90
18906;DHT22;9585;51.018;4.282;2023-07-13T07:51:54;23.50;99.90
18906;DHT22;9585;51.018;4.282;2023-07-13T07:54:22;23.00;99.90
18906;DHT22;9585;51.018;4.282;2023-07-13T07:56:49;22.90;99.90
18906;DHT22;9585;51.018;4.282;2023-07-13T07:59:18;22.70;99.90
18906;DHT22;9585;51.018;4.282;2023-07-13T08:01:46;22.10;99.90
18906;DHT22;9585;51.018;4.282;2023-07-13T08:04:16;21.60;99.90
18906;DHT22;9585;51.018;4.282;2023-07-13T08:06:44;21.50;99.90
18906;DHT22;9585;51.018;4.282;2023-07-13T08:09:11;21.70;99.90
18906;DHT22;9585;51.018;4.282;2023-07-13T08:11:38;22.30;99.90
18906;DHT22;9585;51.018;4.282;2023-07-13T08:14:06;22.90;99.90
18906;DHT22;9585;51.018;4.282;2023-07-13T08:16:36;23.80;99.90
18906;DHT22;9585;51.018;4.282;2023-07-13T08:19:04;24.40;99.90
18906;DHT22;9585;51.018;4.282;2023-07-13T08:21:31;24.80;99.90
18906;DHT22;9585;51.018;4.282;2023-07-13T08:23:59;25.20;99.90
18906;DHT22;9585;51.018;4.282;2023-07-13T08:26:27;25.90;99.90
18906;DHT22;9585;51.018;4.282;2023-07-13T08:28:54;25.80;99.90
18906;DHT22;9585;51.018;4.282;2023-07-13T08:31:22;25.00;99.90
18906;DHT22;9585;51.018;4.282;2023-07-13T08:33:51;23.90;99.90
18906;DHT22;9585;51.018;4.282;2023-07-13T08:36:18;23.70;99.90
18906;DHT22;9585;51.018;4.282;2023-07-13T08:38:46;24.90;99.90
18906;DHT22;9585;51.018;4.282;2023-07-13T08:41:15;25.60;99.90
18906;DHT22;9585;51.018;4.282;2023-07-13T08:43:46;25.40;99.90
18906;DHT22;9585;51.018;4.282;2023-07-13T08:46:18;24.70;99.90
18906;DHT22;9585;51.018;4.282;2023-07-13T08:48:50;24.20;99.90
18906;DHT22;9585;51.018;4.282;2023-07-13T08:51:32;23.80;99.90
18906;DHT22;9585;51.018;4.282;2023-07-13T08:54:02;23.70;99.90
18906;DHT22;9585;51.018;4.282;2023-07-13T08:56:31;23.10;99.90
18906;DHT22;9585;51.018;4.282;2023-07-13T08:59:04;22.70;99.90
18906;DHT22;9585;51.018;4.282;2023-07-13T09:01:47;22.30;99.90
18906;DHT22;9585;51.018;4.282;2023-07-13T09:04:23;22.10;99.90
18906;DHT22;9585;51.018;4.282;2023-07-13T09:07:00;22.10;99.90
18906;DHT22;9585;51.018;4.282;2023-07-13T09:09:39;22.10;99.90
18906;DHT22;9585;51.018;4.282;2023-07-13T09:12:13;22.30;99.90
18906;DHT22;9585;51.018;4.282;2023-07-13T09:14:43;22.30;99.90
18906;DHT22;9585;51.018;4.282;2023-07-13T09:17:18;22.40;99.90
18906;DHT22;9585;51.018;4.282;2023-07-13T09:19:54;22.50;99.90
18906;DHT22;9585;51.018;4.282;2023-07-13T09:22:25;23.00;99.90
18906;DHT22;9585;51.018;4.282;2023-07-13T09:25:00;22.70;99.90
18906;DHT22;9585;51.018;4.282;2023-07-13T09:27:32;22.50;99.90
18906;DHT22;9585;51.018;4.282;2023-07-13T09:30:17;22.60;99.90
18906;DHT22;9585;51.018;4.282;2023-07-13T09:32:52;22.30;99.90
18906;DHT22;9585;51.018;4.282;2023-07-13T09:35:25;22.30;99.90
18906;DHT22;9585;51.018;4.282;2023-07-13T09:37:58;22.00;99.90
18906;DHT22;9585;51.018;4.282;2023-07-13T09:40:36;22.00;99.90
18906;DHT22;9585;51.018;4.282;2023-07-13T09:43:07;21.80;99.90
18906;DHT22;9585;51.018;4.282;2023-07-13T09:45:36;21.80;99.90
18906;DHT22;9585;51.018;4.282;2023-07-13T09:48:07;21.80;99.90
18906;DHT22;9585;51.018;4.282;2023-07-13T09:50:40;21.70;99.90
18906;DHT22;9585;51.018;4.282;2023-07-13T09:53:12;22.10;99.90
18906;DHT22;9585;51.018;4.282;2023-07-13T09:55:41;21.90;99.90
18906;DHT22;9585;51.018;4.282;2023-07-13T09:58:12;22.10;99.90
18906;DHT22;9585;51.018;4.282;2023-07-13T10:00:42;21.80;99.90
18906;DHT22;9585;51.018;4.282;2023-07-13T10:03:19;22.10;99.90
18906;DHT22;9585;51.018;4.282;2023-07-13T10:05:51;22.50;99.90
18906;DHT22;9585;51.018;4.282;2023-07-13T10:08:24;22.80;99.90
18906;DHT22;9585;51.018;4.282;2023-07-13T10:10:58;23.10;99.90
18906;DHT22;9585;51.018;4.282;2023-07-13T10:13:29;23.30;99.90
18906;DHT22;9585;51.018;4.282;2023-07-13T10:16:00;23.30;99.90
18906;DHT22;9585;51.018;4.282;2023-07-13T10:18:29;23.20;99.90
18906;DHT22;9585;51.018;4.282;2023-07-13T10:21:11;22.70;99.90
18906;DHT22;9585;51.018;4.282;2023-07-13T10:23:40;22.30;99.90
18906;DHT22;9585;51.018;4.282;2023-07-13T10:26:13;22.30;99.90
18906;DHT22;9585;51.018;4.282;2023-07-13T10:28:46;22.40;99.90
18906;DHT22;9585;51.018;4.282;2023-07-13T10:31:16;22.60;99.90
18906;DHT22;9585;51.018;4.282;2023-07-13T10:33:45;23.10;99.90
18906;DHT22;9585;51.018;4.282;2023-07-13T10:36:31;23.30;99.90
18906;DHT22;9585;51.018;4.282;2023-07-13T10:39:03;23.60;99.90
18906;DHT22;9585;51.018;4.282;2023-07-13T10:41:37;23.60;99.90
18906;DHT22;9585;51.018;4.282;2023-07-13T10:44:15;23.50;99.90
18906;DHT22;9585;51.018;4.282;2023-07-13T10:46:47;23.30;99.90
18906;DHT22;9585;51.018;4.282;2023-07-13T10:49:16;23.20;99.90
18906;DHT22;9585;51.018;4.282;2023-07-13T10:51:49;22.80;99.90
18906;DHT22;9585;51.018;4.282;2023-07-13T10:54:20;22.50;99.90
18906;DHT22;9585;51.018;4.282;2023-07-13T10:56:54;22.20;99.90
18906;DHT22;9585;51.018;4.282;2023-07-13T10:59:35;22.10;99.90
18906;DHT22;9585;51.018;4.282;2023-07-13T11:02:12;22.40;99.90
18906;DHT22;9585;51.018;4.282;2023-07-13T11:04:44;22.40;99.90
18906;DHT22;9585;51.018;4.282;2023-07-13T11:07:22;22.50;99.90
18906;DHT22;9585;51.018;4.282;2023-07-13T11:09:51;22.70;99.90
18906;DHT22;9585;51.018;4.282;2023-07-13T11:12:50;22.70;99.90
18906;DHT22;9585;51.018;4.282;2023-07-13T11:15:33;22.90;99.90
18906;DHT22;9585;51.018;4.282;2023-07-13T11:18:20;23.00;99.90
18906;DHT22;9585;51.018;4.282;2023-07-13T11:20:49;22.60;99.90
18906;DHT22;9585;51.018;4.282;2023-07-13T11:23:28;22.80;99.90
18906;DHT22;9585;51.018;4.282;2023-07-13T11:25:57;22.80;99.90
18906;DHT22;9585;51.018;4.282;2023-07-13T11:28:29;22.60;99.90
18906;DHT22;9585;51.018;4.282;2023-07-13T11:31:14;22.70;99.90
18906;DHT22;9585;51.018;4.282;2023-07-13T11:33:55;22.80;99.90
18906;DHT22;9585;51.018;4.282;2023-07-13T11:36:27;23.10;99.90
18906;DHT22;9585;51.018;4.282;2023-07-13T11:39:02;23.00;99.90
18906;DHT22;9585;51.018;4.282;2023-07-13T11:41:35;22.90;99.90
18906;DHT22;9585;51.018;4.282;2023-07-13T11:44:12;22.50;99.90
18906;DHT22;9585;51.018;4.282;2023-07-13T11:46:45;21.60;99.90
18906;DHT22;9585;51.018;4.282;2023-07-13T11:49:16;20.60;99.90
18906;DHT22;9585;51.018;4.282;2023-07-13T11:51:44;19.90;99.90
18906;DHT22;9585;51.018;4.282;2023-07-13T11:54:25;19.30;99.90
18906;DHT22;9585;51.018;4.282;2023-07-13T11:56:55;18.70;99.90
18906;DHT22;9585;51.018;4.282;2023-07-13T11:59:24;18.60;99.90
18906;DHT22;9585;51.018;4.282;2023-07-13T12:01:53;18.40;99.90
18906;DHT22;9585;51.018;4.282;2023-07-13T12:04:23;18.20;99.90
18906;DHT22;9585;51.018;4.282;2023-07-13T12:07:02;17.90;99.90
18906;DHT22;9585;51.018;4.282;2023-07-13T12:09:34;17.80;99.90
18906;DHT22;9585;51.018;4.282;2023-07-13T12:12:12;17.60;99.90
18906;DHT22;9585;51.018;4.282;2023-07-13T12:14:40;17.70;99.90
18906;DHT22;9585;51.018;4.282;2023-07-13T12:17:19;17.80;99.90
18906;DHT22;9585;51.018;4.282;2023-07-13T12:19:48;17.70;99.90
18906;DHT22;9585;51.018;4.282;2023-07-13T12:22:17;17.90;99.90
18906;DHT22;9585;51.018;4.282;2023-07-13T12:24:48;18.20;99.90
18906;DHT22;9585;51.018;4.282;2023-07-13T12:27:20;18.30;99.90
18906;DHT22;9585;51.018;4.282;2023-07-13T12:29:51;18.50;99.90
18906;DHT22;9585;51.018;4.282;2023-07-13T12:32:20;18.40;99.90
18906;DHT22;9585;51.018;4.282;2023-07-13T12:34:52;18.50;99.90
18906;DHT22;9585;51.018;4.282;2023-07-13T12:37:22;18.70;99.90
18906;DHT22;9585;51.018;4.282;2023-07-13T12:39:52;18.90;99.90
18906;DHT22;9585;51.018;4.282;2023-07-13T12:42:22;19.10;99.90
18906;DHT22;9585;51.018;4.282;2023-07-13T12:44:54;19.30;99.90
18906;DHT22;9585;51.018;4.282;2023-07-13T12:47:24;19.60;99.90
18906;DHT22;9585;51.018;4.282;2023-07-13T12:49:55;19.90;99.90
18906;DHT22;9585;51.018;4.282;2023-07-13T12:52:28;19.90;99.90
18906;DHT22;9585;51.018;4.282;2023-07-13T12:55:07;19.60;99.90
18906;DHT22;9585;51.018;4.282;2023-07-13T12:57:43;19.80;99.90
18906;DHT22;9585;51.018;4.282;2023-07-13T13:00:30;19.90;99.90
18906;DHT22;9585;51.018;4.282;2023-07-13T13:03:02;20.30;99.90
18906;DHT22;9585;51.018;4.282;2023-07-13T13:05:32;20.60;99.90
18906;DHT22;9585;51.018;4.282;2023-07-13T13:08:00;20.50;99.90
18906;DHT22;9585;51.018;4.282;2023-07-13T13:10:30;20.60;99.90
18906;DHT22;9585;51.018;4.282;2023-07-13T13:12:58;20.80;99.90
18906;DHT22;9585;51.018;4.282;2023-07-13T13:15:25;20.80;99.90
18906;DHT22;9585;51.018;4.282;2023-07-13T13:17:54;20.90;99.90
18906;DHT22;9585;51.018;4.282;2023-07-13T13:20:24;20.90;99.90
18906;DHT22;9585;51.018;4.282;2023-07-13T13:22:53;21.00;99.90
18906;DHT22;9585;51.018;4.282;2023-07-13T13:25:21;21.10;99.90
18906;DHT22;9585;51.018;4.282;2023-07-13T13:27:50;21.10;99.90
18906;DHT22;9585;51.018;4.282;2023-07-13T13:30:18;21.10;99.90
18906;DHT22;9585;51.018;4.282;2023-07-13T13:32:47;21.10;99.90
18906;DHT22;9585;51.018;4.282;2023-07-13T13:35:16;21.20;99.90
18906;DHT22;9585;51.018;4.282;2023-07-13T13:37:45;21.40;99.90
18906;DHT22;9585;51.018;4.282;2023-07-13T13:40:18;21.60;99.90
18906;DHT22;9585;51.018;4.282;2023-07-13T13:42:46;21.70;99.90
18906;DHT22;9585;51.018;4.282;2023-07-13T13:45:15;22.00;99.90
18906;DHT22;9585;51.018;4.282;2023-07-13T13:47:44;21.50;99.90
18906;DHT22;9585;51.018;4.282;2023-07-13T13:50:15;21.40;99.90
18906;DHT22;9585;51.018;4.282;2023-07-13T13:52:44;21.50;99.90
18906;DHT22;9585;51.018;4.282;2023-07-13T13:55:13;21.50;99.90
18906;DHT22;9585;51.018;4.282;2023-07-13T13:57:40;21.30;99.90
18906;DHT22;9585;51.018;4.282;2023-07-13T14:00:09;21.10;99.90
18906;DHT22;9585;51.018;4.282;2023-07-13T14:02:43;21.10;99.90
18906;DHT22;9585;51.018;4.282;2023-07-13T14:05:15;21.10;99.90
18906;DHT22;9585;51.018;4.282;2023-07-13T14:07:44;21.10;99.90
18906;DHT22;9585;51.018;4.282;2023-07-13T14:10:14;21.30;99.90
18906;DHT22;9585;51.018;4.282;2023-07-13T14:12:43;21.40;99.90
18906;DHT22;9585;51.018;4.282;2023-07-13T14:15:15;21.50;99.90
18906;DHT22;9585;51.018;4.282;2023-07-13T14:17:45;21.60;99.90
18906;DHT22;9585;51.018;4.282;2023-07-13T14:20:16;21.70;99.90
18906;DHT22;9585;51.018;4.282;2023-07-13T14:22:44;21.80;99.90
18906;DHT22;9585;51.018;4.282;2023-07-13T14:25:13;21.90;99.90
18906;DHT22;9585;51.018;4.282;2023-07-13T14:27:42;21.70;99.90
18906;DHT22;9585;51.018;4.282;2023-07-13T14:30:13;21.70;99.90
18906;DHT22;9585;51.018;4.282;2023-07-13T14:32:42;21.70;99.90
18906;DHT22;9585;51.018;4.282;2023-07-13T14:35:12;21.70;99.90
18906;DHT22;9585;51.018;4.282;2023-07-13T14:37:42;21.80;99.90
18906;DHT22;9585;51.018;4.282;2023-07-13T14:40:14;22.00;99.90
18906;DHT22;9585;51.018;4.282;2023-07-13T14:42:43;22.10;99.90
18906;DHT22;9585;51.018;4.282;2023-07-13T14:45:13;21.90;99.90
18906;DHT22;9585;51.018;4.282;2023-07-13T14:47:42;21.80;99.90
18906;DHT22;9585;51.018;4.282;2023-07-13T14:50:18;21.70;99.90
18906;DHT22;9585;51.018;4.282;2023-07-13T14:52:47;21.80;99.90
18906;DHT22;9585;51.018;4.282;2023-07-13T14:55:17;21.70;99.90
18906;DHT22;9585;51.018;4.282;2023-07-13T14:57:45;21.40;99.90
18906;DHT22;9585;51.018;4.282;2023-07-13T15:00:14;21.40;99.90
18906;DHT22;9585;51.018;4.282;2023-07-13T15:02:45;21.60;99.90
18906;DHT22;9585;51.018;4.282;2023-07-13T15:05:17;21.70;99.90
18906;DHT22;9585;51.018;4.282;2023-07-13T15:07:45;21.70;99.90
18906;DHT22;9585;51.018;4.282;2023-07-13T15:10:16;21.90;99.90
18906;DHT22;9585;51.018;4.282;2023-07-13T15:12:44;21.90;99.90
18906;DHT22;9585;51.018;4.282;2023-07-13T15:15:13;22.10;99.90
18906;DHT22;9585;51.018;4.282;2023-07-13T15:17:43;22.10;99.90
18906;DHT22;9585;51.018;4.282;2023-07-13T15:20:18;22.30;99.90
18906;DHT22;9585;51.018;4.282;2023-07-13T15:22:46;22.40;99.90
18906;DHT22;9585;51.018;4.282;2023-07-13T15:25:17;22.50;99.90
18906;DHT22;9585;51.018;4.282;2023-07-13T15:27:45;22.40;99.90
18906;DHT22;9585;51.018;4.282;2023-07-13T15:30:15;22.30;99.90
18906;DHT22;9585;51.018;4.282;2023-07-13T15:32:43;22.20;99.90
18906;DHT22;9585;51.018;4.282;2023-07-13T15:35:17;22.20;99.90
18906;DHT22;9585;51.018;4.282;2023-07-13T15:37:45;22.30;99.90
18906;DHT22;9585;51.018;4.282;2023-07-13T15:40:14;22.30;99.90
18906;DHT22;9585;51.018;4.282;2023-07-13T15:42:43;22.30;99.90
18906;DHT22;9585;51.018;4.282;2023-07-13T15:45:16;22.30;99.90
18906;DHT22;9585;51.018;4.282;2023-07-13T15:47:45;22.40;99.90
18906;DHT22;9585;51.018;4.282;2023-07-13T15:50:13;22.50;99.90
18906;DHT22;9585;51.018;4.282;2023-07-13T20:33:18;17.00;99.90
18906;DHT22;9585;51.018;4.282;2023-07-13T20:35:47;17.00;99.90
18906;DHT22;9585;51.018;4.282;2023-07-13T20:38:17;17.10;99.90
18906;DHT22;9585;51.018;4.282;2023-07-13T20:40:46;17.20;99.90
18906;DHT22;9585;51.018;4.282;2023-07-13T20:43:23;17.40;99.90